createdAt,value
2022-12-09T00:00:39.622Z,16.70
2022-12-09T00:01:39.618Z,17.60
2022-12-09T00:02:39.716Z,17.50
2022-12-09T00:03:39.712Z,17.40
2022-12-09T00:04:39.720Z,18.60
2022-12-09T00:05:39.564Z,19.00
2022-12-09T00:06:39.722Z,18.50
2022-12-09T00:07:39.637Z,18.70
2022-12-09T00:08:39.553Z,17.70
2022-12-09T00:09:39.520Z,18.10
2022-12-09T00:10:39.649Z,18.30
2022-12-09T00:11:39.725Z,17.70
2022-12-09T00:12:39.710Z,18.20
2022-12-09T00:13:39.470Z,17.50
2022-12-09T00:14:39.443Z,16.90
2022-12-09T00:15:39.474Z,17.20
2022-12-09T00:16:39.474Z,15.80
2022-12-09T00:17:39.493Z,16.10
2022-12-09T00:18:39.625Z,16.50
2022-12-09T00:19:39.640Z,16.00
2022-12-09T00:20:39.568Z,16.60
2022-12-09T00:21:39.460Z,17.10
2022-12-09T00:22:39.377Z,18.70
2022-12-09T00:23:39.353Z,17.80
2022-12-09T00:24:39.544Z,17.50
2022-12-09T00:25:39.327Z,17.90
2022-12-09T00:26:39.432Z,17.30
2022-12-09T00:27:39.561Z,18.00
2022-12-09T00:28:39.510Z,16.90
2022-12-09T00:29:39.295Z,16.00
2022-12-09T00:30:39.292Z,17.20
2022-12-09T00:31:39.434Z,15.80
2022-12-09T00:32:39.327Z,16.70
2022-12-09T00:33:39.234Z,16.60
2022-12-09T00:34:39.247Z,17.10
2022-12-09T00:35:39.223Z,18.70
2022-12-09T00:36:39.448Z,19.70
2022-12-09T00:37:39.208Z,20.60
2022-12-09T00:38:39.264Z,19.10
2022-12-09T00:39:39.206Z,18.40
2022-12-09T00:40:39.462Z,17.80
2022-12-09T00:41:39.422Z,18.70
2022-12-09T00:42:39.238Z,18.10
2022-12-09T00:43:39.139Z,17.00
2022-12-09T00:44:39.411Z,16.20
2022-12-09T00:45:39.142Z,17.50
2022-12-09T00:46:39.290Z,17.50
2022-12-09T00:47:39.398Z,18.60
2022-12-09T00:48:39.156Z,19.30
2022-12-09T00:49:39.096Z,18.60
2022-12-09T00:50:39.300Z,18.40
2022-12-09T00:51:39.172Z,19.00
2022-12-09T00:52:39.324Z,19.20
2022-12-09T00:53:39.137Z,19.50
2022-12-09T00:54:39.144Z,19.50
2022-12-09T00:55:39.164Z,19.00
2022-12-09T00:56:39.184Z,18.70
2022-12-09T00:57:39.064Z,17.90
2022-12-09T00:58:39.068Z,18.70
2022-12-09T00:59:39.038Z,19.00
2022-12-09T01:00:39.163Z,18.40
2022-12-09T01:01:39.267Z,17.20
2022-12-09T01:02:39.332Z,15.80
2022-12-09T01:03:39.362Z,17.00
2022-12-09T01:04:39.245Z,16.80
2022-12-09T01:05:39.001Z,17.00
2022-12-09T01:06:39.037Z,16.50
2022-12-09T01:07:39.058Z,16.90
2022-12-09T01:08:39.517Z,16.80
2022-12-09T01:09:39.188Z,16.20
2022-12-09T01:10:39.264Z,16.50
2022-12-09T01:11:39.029Z,15.30
2022-12-09T01:12:39.094Z,15.40
2022-12-09T01:13:38.968Z,15.90
2022-12-09T01:14:39.017Z,16.30
2022-12-09T01:15:39.073Z,15.50
2022-12-09T01:16:39.067Z,16.40
2022-12-09T01:17:39.136Z,16.00
2022-12-09T01:18:38.974Z,16.40
2022-12-09T01:19:38.979Z,16.90
2022-12-09T01:20:38.984Z,15.10
2022-12-09T01:21:38.988Z,15.50
2022-12-09T01:22:39.071Z,15.20
2022-12-09T01:23:38.929Z,15.80
2022-12-09T01:24:38.942Z,15.70
2022-12-09T01:25:38.940Z,15.70
2022-12-09T01:26:39.250Z,16.10
2022-12-09T01:27:39.194Z,17.50
2022-12-09T01:28:38.938Z,17.00
2022-12-09T01:29:38.922Z,16.80
2022-12-09T01:30:38.938Z,15.70
2022-12-09T01:31:39.101Z,15.90
2022-12-09T01:32:39.236Z,16.00
2022-12-09T01:33:39.227Z,16.20
2022-12-09T01:34:39.090Z,16.70
2022-12-09T01:35:38.933Z,16.20
2022-12-09T01:36:39.035Z,15.90
2022-12-09T01:37:38.995Z,16.00
2022-12-09T01:38:39.012Z,14.60
2022-12-09T01:39:38.952Z,15.60
2022-12-09T01:40:39.154Z,15.70
2022-12-09T01:41:39.331Z,16.00
2022-12-09T01:42:39.250Z,16.70
2022-12-09T01:43:38.984Z,16.10
2022-12-09T01:44:39.296Z,15.00
2022-12-09T01:45:38.992Z,15.20
2022-12-09T01:46:39.106Z,15.70
2022-12-09T01:47:39.161Z,16.80
2022-12-09T01:48:39.018Z,16.20
2022-12-09T01:49:39.166Z,17.10
2022-12-09T01:50:39.003Z,16.70
2022-12-09T01:51:39.024Z,16.20
2022-12-09T01:52:39.004Z,15.80
2022-12-09T01:53:39.020Z,16.50
2022-12-09T01:54:39.015Z,17.10
2022-12-09T01:55:39.260Z,18.10
2022-12-09T01:56:39.143Z,16.20
2022-12-09T01:57:39.135Z,14.90
2022-12-09T01:58:39.018Z,15.50
2022-12-09T01:59:39.053Z,15.10
2022-12-09T02:00:39.353Z,15.60
2022-12-09T02:01:39.089Z,15.20
2022-12-09T02:02:39.312Z,15.10
2022-12-09T02:03:39.219Z,15.40
2022-12-09T02:04:39.114Z,16.20
2022-12-09T02:05:39.075Z,15.30
2022-12-09T02:06:39.257Z,17.10
2022-12-09T02:07:39.082Z,17.70
2022-12-09T02:08:39.443Z,17.40
2022-12-09T02:09:39.276Z,16.40
2022-12-09T02:10:39.126Z,18.00
2022-12-09T02:11:39.326Z,17.10
2022-12-09T02:12:39.413Z,16.80
2022-12-09T02:13:39.374Z,16.70
2022-12-09T02:14:39.528Z,16.30
2022-12-09T02:15:39.474Z,17.70
2022-12-09T02:16:39.149Z,16.90
2022-12-09T02:17:39.277Z,16.00
2022-12-09T02:18:39.170Z,17.40
2022-12-09T02:19:39.390Z,17.10
2022-12-09T02:20:39.148Z,17.10
2022-12-09T02:21:39.138Z,18.00
2022-12-09T02:22:39.140Z,18.50
2022-12-09T02:23:39.325Z,17.90
2022-12-09T02:24:39.314Z,17.30
2022-12-09T02:25:39.442Z,17.20
2022-12-09T02:26:39.200Z,16.30
2022-12-09T02:27:39.374Z,17.00
2022-12-09T02:28:39.176Z,17.00
2022-12-09T02:29:39.142Z,17.10
2022-12-09T02:30:39.160Z,18.60
2022-12-09T02:31:39.308Z,18.00
2022-12-09T02:32:39.240Z,19.00
2022-12-09T02:33:39.190Z,18.00
2022-12-09T02:34:39.482Z,18.70
2022-12-09T02:35:39.447Z,17.70
2022-12-09T02:36:39.312Z,17.60
2022-12-09T02:37:39.171Z,16.60
2022-12-09T02:38:39.190Z,17.50
2022-12-09T02:39:39.404Z,16.30
2022-12-09T02:40:39.257Z,15.90
2022-12-09T02:41:39.206Z,16.20
2022-12-09T02:42:39.197Z,16.80
2022-12-09T02:43:41.139Z,17.90
2022-12-09T02:44:40.212Z,17.30
2022-12-09T02:45:39.426Z,17.00
2022-12-09T02:46:39.607Z,17.10
2022-12-09T02:47:39.514Z,16.30
2022-12-09T02:48:39.565Z,16.50
2022-12-09T02:49:39.527Z,17.60
2022-12-09T02:50:39.282Z,16.00
2022-12-09T02:51:39.270Z,16.00
2022-12-09T02:52:39.529Z,16.80
2022-12-09T02:53:39.413Z,15.60
2022-12-09T02:54:39.643Z,16.60
2022-12-09T02:55:39.342Z,16.00
2022-12-09T02:56:39.516Z,16.70
2022-12-09T02:57:39.444Z,16.20
2022-12-09T02:58:39.380Z,16.10
2022-12-09T02:59:39.515Z,15.80
2022-12-09T03:00:39.523Z,17.50
2022-12-09T03:01:39.507Z,15.30
2022-12-09T03:02:39.552Z,14.90
2022-12-09T03:03:39.628Z,14.30
2022-12-09T03:04:39.807Z,14.90
2022-12-09T03:05:39.479Z,13.80
2022-12-09T03:06:39.711Z,13.70
2022-12-09T03:07:39.495Z,14.30
2022-12-09T03:08:39.623Z,13.10
2022-12-09T03:09:39.617Z,13.70
2022-12-09T03:10:39.488Z,14.00
2022-12-09T03:11:39.642Z,13.70
2022-12-09T03:12:39.808Z,13.50
2022-12-09T03:13:39.807Z,13.70
2022-12-09T03:14:39.498Z,13.80
2022-12-09T03:15:39.571Z,13.70
2022-12-09T03:16:39.557Z,13.60
2022-12-09T03:17:39.560Z,13.00
2022-12-09T03:18:39.623Z,12.70
2022-12-09T03:19:39.898Z,12.60
2022-12-09T03:20:39.586Z,13.00
2022-12-09T03:21:39.565Z,12.60
2022-12-09T03:22:39.575Z,13.00
2022-12-09T03:23:39.585Z,11.80
2022-12-09T03:24:39.615Z,13.10
2022-12-09T03:25:39.777Z,11.70
2022-12-09T03:26:39.639Z,11.40
2022-12-09T03:27:39.989Z,12.40
2022-12-09T03:28:39.657Z,12.40
2022-12-09T03:29:39.927Z,12.10
2022-12-09T03:30:39.761Z,11.70
2022-12-09T03:31:39.726Z,11.80
2022-12-09T03:32:39.722Z,12.10
2022-12-09T03:33:39.704Z,12.20
2022-12-09T03:34:39.650Z,12.00
2022-12-09T03:35:39.677Z,11.30
2022-12-09T03:36:39.780Z,12.00
2022-12-09T03:37:39.959Z,11.70
2022-12-09T03:38:39.714Z,12.20
2022-12-09T03:39:40.092Z,12.30
2022-12-09T03:40:39.970Z,11.40
2022-12-09T03:41:39.834Z,11.50
2022-12-09T03:42:39.767Z,12.20
2022-12-09T03:43:39.995Z,11.60
2022-12-09T03:44:39.788Z,11.80
2022-12-09T03:45:40.187Z,12.30
2022-12-09T03:46:40.175Z,12.20
2022-12-09T03:47:40.077Z,12.10
2022-12-09T03:48:40.199Z,12.60
2022-12-09T03:49:39.863Z,13.20
2022-12-09T03:50:40.043Z,13.00
2022-12-09T03:51:39.909Z,13.10
2022-12-09T03:52:40.252Z,13.10
2022-12-09T03:53:40.239Z,12.30
2022-12-09T03:54:39.949Z,12.60
2022-12-09T03:55:40.183Z,12.60
2022-12-09T03:56:39.980Z,12.70
2022-12-09T03:57:39.990Z,12.40
2022-12-09T03:58:40.005Z,11.90
2022-12-09T03:59:40.135Z,12.20
2022-12-09T04:00:40.082Z,12.50
2022-12-09T04:01:40.113Z,12.50
2022-12-09T04:02:40.492Z,12.60
2022-12-09T04:03:40.271Z,11.90
2022-12-09T04:04:40.273Z,12.70
2022-12-09T04:05:40.285Z,12.40
2022-12-09T04:06:40.162Z,12.80
2022-12-09T04:07:40.320Z,12.40
2022-12-09T04:08:40.242Z,12.00
2022-12-09T04:09:40.596Z,12.00
2022-12-09T04:10:40.397Z,12.40
2022-12-09T04:11:40.473Z,12.10
2022-12-09T04:12:40.482Z,11.80
2022-12-09T04:13:40.603Z,11.80
2022-12-09T04:14:40.281Z,11.30
2022-12-09T04:15:40.623Z,13.10
2022-12-09T04:16:40.356Z,12.50
2022-12-09T04:17:40.741Z,11.60
2022-12-09T04:18:40.754Z,12.30
2022-12-09T04:19:40.389Z,12.70
2022-12-09T04:20:40.465Z,13.10
2022-12-09T04:21:40.499Z,12.80
2022-12-09T04:22:40.485Z,12.10
2022-12-09T04:23:43.263Z,12.10
2022-12-09T04:24:40.557Z,12.20
2022-12-09T04:25:40.919Z,12.60
2022-12-09T04:26:40.686Z,12.20
2022-12-09T04:27:40.532Z,11.70
2022-12-09T04:28:40.622Z,12.10
2022-12-09T04:29:40.620Z,11.60
2022-12-09T04:30:40.724Z,11.80
2022-12-09T04:31:40.737Z,11.50
2022-12-09T04:32:41.101Z,11.70
2022-12-09T04:33:41.062Z,11.80
2022-12-09T04:34:40.829Z,12.70
2022-12-09T04:35:40.779Z,12.00
2022-12-09T04:36:40.949Z,12.90
2022-12-09T04:37:40.741Z,11.60
2022-12-09T04:38:40.876Z,12.60
2022-12-09T04:39:41.146Z,11.60
2022-12-09T04:40:40.994Z,12.10
2022-12-09T04:41:40.847Z,13.40
2022-12-09T04:42:41.197Z,11.70
2022-12-09T04:43:41.061Z,12.30
2022-12-09T04:44:41.215Z,12.40
2022-12-09T04:45:41.330Z,11.90
2022-12-09T04:46:41.253Z,11.80
2022-12-09T04:47:41.344Z,12.10
2022-12-09T04:48:41.220Z,12.10
2022-12-09T04:49:41.028Z,11.50
2022-12-09T04:50:41.211Z,13.30
2022-12-09T04:51:41.126Z,13.30
2022-12-09T04:52:41.111Z,12.60
2022-12-09T04:53:41.414Z,14.20
2022-12-09T04:54:41.126Z,13.10
2022-12-09T04:55:41.441Z,13.20
2022-12-09T04:56:41.650Z,11.90
2022-12-09T04:57:41.187Z,11.90
2022-12-09T04:58:41.640Z,13.00
2022-12-09T04:59:41.389Z,12.70
2022-12-09T05:00:41.495Z,12.80
2022-12-09T05:01:41.561Z,11.90
2022-12-09T05:02:41.631Z,12.40
2022-12-09T05:03:41.386Z,12.20
2022-12-09T05:04:41.898Z,12.10
2022-12-09T05:05:41.786Z,12.40
2022-12-09T05:06:41.684Z,12.70
2022-12-09T05:07:41.587Z,11.80
2022-12-09T05:08:41.499Z,11.20
2022-12-09T05:09:41.713Z,11.90
2022-12-09T05:10:41.649Z,12.40
2022-12-09T05:11:41.644Z,12.20
2022-12-09T05:12:41.541Z,12.00
2022-12-09T05:13:41.465Z,12.80
2022-12-09T05:14:41.686Z,12.70
2022-12-09T05:15:41.592Z,12.90
2022-12-09T05:16:41.983Z,12.50
2022-12-09T05:17:41.619Z,13.20
2022-12-09T05:18:41.766Z,12.00
2022-12-09T05:19:41.564Z,12.40
2022-12-09T05:20:41.838Z,12.20
2022-12-09T05:21:41.725Z,12.60
2022-12-09T05:22:41.773Z,12.60
2022-12-09T05:23:41.779Z,12.40
2022-12-09T05:24:41.713Z,13.20
2022-12-09T05:25:41.657Z,13.00
2022-12-09T05:26:41.787Z,12.50
2022-12-09T05:27:41.736Z,12.90
2022-12-09T05:28:41.690Z,13.20
2022-12-09T05:29:41.861Z,13.40
2022-12-09T05:30:41.713Z,13.30
2022-12-09T05:31:41.879Z,13.30
2022-12-09T05:32:42.033Z,13.20
2022-12-09T05:33:42.185Z,13.60
2022-12-09T05:34:41.949Z,12.80
2022-12-09T05:35:50.857Z,12.30
2022-12-09T05:36:42.695Z,13.20
2022-12-09T05:37:41.811Z,13.30
2022-12-09T05:38:41.808Z,13.90
2022-12-09T05:39:41.918Z,12.60
2022-12-09T05:40:42.023Z,12.40
2022-12-09T05:41:41.731Z,13.10
2022-12-09T05:42:42.245Z,12.60
2022-12-09T05:43:41.725Z,12.60
2022-12-09T05:44:41.728Z,12.50
2022-12-09T05:45:42.029Z,13.10
2022-12-09T05:46:41.879Z,12.80
2022-12-09T05:47:41.834Z,13.70
2022-12-09T05:48:41.814Z,13.10
2022-12-09T05:49:41.768Z,13.40
2022-12-09T05:50:41.728Z,14.10
2022-12-09T05:51:42.014Z,14.40
2022-12-09T05:52:42.039Z,13.70
2022-12-09T05:53:41.691Z,13.10
2022-12-09T05:54:41.758Z,14.10
2022-12-09T05:55:42.075Z,13.60
2022-12-09T05:56:46.318Z,13.70
2022-12-09T05:57:42.721Z,14.20
2022-12-09T05:58:41.671Z,13.00
2022-12-09T05:59:42.054Z,13.50
2022-12-09T06:00:41.918Z,14.10
2022-12-09T06:01:42.033Z,13.10
2022-12-09T06:02:41.817Z,13.90
2022-12-09T06:03:41.916Z,13.50
2022-12-09T06:04:42.047Z,13.20
2022-12-09T06:05:42.301Z,14.60
2022-12-09T06:06:41.742Z,16.70
2022-12-09T06:07:41.971Z,17.20
2022-12-09T06:08:41.925Z,16.50
2022-12-09T06:09:41.975Z,16.70
2022-12-09T06:10:41.781Z,14.70
2022-12-09T06:11:41.868Z,14.10
2022-12-09T06:12:41.745Z,14.70
2022-12-09T06:13:41.639Z,14.80
2022-12-09T06:14:41.616Z,14.60
2022-12-09T06:15:41.817Z,13.90
2022-12-09T06:16:41.746Z,14.90
2022-12-09T06:17:41.864Z,14.10
2022-12-09T06:18:41.837Z,15.00
2022-12-09T06:19:41.694Z,13.60
2022-12-09T06:20:41.740Z,13.70
2022-12-09T06:21:41.694Z,12.90
2022-12-09T06:22:41.878Z,12.20
2022-12-09T06:23:41.643Z,13.30
2022-12-09T06:24:41.644Z,12.70
2022-12-09T06:25:41.694Z,14.20
2022-12-09T06:26:41.792Z,13.10
2022-12-09T06:27:41.742Z,13.00
2022-12-09T06:28:41.713Z,12.70
2022-12-09T06:29:41.860Z,13.10
2022-12-09T06:30:41.526Z,13.20
2022-12-09T06:31:41.553Z,14.10
2022-12-09T06:32:41.652Z,13.80
2022-12-09T06:33:54.123Z,13.40
2022-12-09T06:34:43.025Z,13.40
2022-12-09T06:35:41.729Z,13.30
2022-12-09T06:36:41.665Z,13.00
2022-12-09T06:37:41.650Z,13.20
2022-12-09T06:38:41.955Z,15.20
2022-12-09T06:39:41.851Z,14.80
2022-12-09T06:40:41.489Z,15.90
2022-12-09T06:41:41.570Z,17.50
2022-12-09T06:42:41.864Z,16.90
2022-12-09T06:43:41.904Z,16.20
2022-12-09T06:44:41.568Z,16.20
2022-12-09T06:45:41.755Z,16.10
2022-12-09T06:46:41.525Z,16.50
2022-12-09T06:47:41.549Z,15.60
2022-12-09T06:48:41.900Z,16.40
2022-12-09T06:49:41.998Z,16.90
2022-12-09T06:50:41.603Z,15.60
2022-12-09T06:51:41.634Z,16.60
2022-12-09T06:52:41.510Z,14.70
2022-12-09T06:53:41.584Z,15.40
2022-12-09T06:54:41.467Z,14.80
2022-12-09T06:55:41.602Z,16.00
2022-12-09T06:56:41.584Z,14.40
2022-12-09T06:57:41.421Z,13.40
2022-12-09T06:58:41.499Z,13.10
2022-12-09T06:59:41.589Z,14.00
2022-12-09T07:00:41.561Z,15.50
2022-12-09T07:01:41.869Z,15.40
2022-12-09T07:02:41.873Z,15.20
2022-12-09T07:03:41.828Z,14.70
2022-12-09T07:04:41.558Z,14.40
2022-12-09T07:05:41.869Z,15.10
2022-12-09T07:06:41.726Z,16.00
2022-12-09T07:07:41.574Z,14.60
2022-12-09T07:08:41.761Z,14.40
2022-12-09T07:09:41.425Z,14.40
2022-12-09T07:10:41.549Z,14.90
2022-12-09T07:11:41.591Z,15.00
2022-12-09T07:12:41.315Z,13.90
2022-12-09T07:13:41.281Z,14.80
2022-12-09T07:14:41.317Z,15.10
2022-12-09T07:15:41.662Z,14.60
2022-12-09T07:16:41.468Z,16.70
2022-12-09T07:17:41.488Z,16.30
2022-12-09T07:18:41.404Z,16.30
2022-12-09T07:19:41.645Z,16.00
2022-12-09T07:20:41.680Z,16.20
2022-12-09T07:21:41.261Z,14.90
2022-12-09T07:22:41.420Z,16.10
2022-12-09T07:23:41.520Z,16.00
2022-12-09T07:24:41.303Z,15.60
2022-12-09T07:25:41.351Z,15.30
2022-12-09T07:26:41.347Z,15.70
2022-12-09T07:27:41.647Z,14.60
2022-12-09T07:28:41.272Z,14.70
2022-12-09T07:29:41.385Z,15.00
2022-12-09T07:30:41.478Z,15.00
2022-12-09T07:31:41.418Z,15.80
2022-12-09T07:32:41.408Z,14.20
2022-12-09T07:33:41.464Z,14.20
2022-12-09T07:34:41.393Z,14.80
2022-12-09T07:35:41.554Z,13.80
2022-12-09T07:36:41.397Z,16.10
2022-12-09T07:37:41.292Z,14.40
2022-12-09T07:38:41.088Z,14.00
2022-12-09T07:39:41.295Z,14.70
2022-12-09T07:40:41.176Z,14.10
2022-12-09T07:41:41.375Z,13.30
2022-12-09T07:42:41.153Z,12.80
2022-12-09T07:43:41.010Z,12.30
2022-12-09T07:44:41.270Z,13.30
2022-12-09T07:45:41.081Z,13.50
2022-12-09T07:46:41.148Z,14.30
2022-12-09T07:47:41.026Z,13.90
2022-12-09T07:48:41.014Z,13.40
2022-12-09T07:49:41.410Z,14.20
2022-12-09T07:50:40.871Z,13.30
2022-12-09T07:51:40.920Z,15.30
2022-12-09T07:52:40.978Z,14.20
2022-12-09T07:53:41.296Z,14.70
2022-12-09T07:54:40.769Z,14.30
2022-12-09T07:55:40.767Z,14.70
2022-12-09T07:56:40.822Z,14.80
2022-12-09T07:57:40.832Z,14.60
2022-12-09T07:58:41.062Z,15.20
2022-12-09T07:59:40.859Z,14.70
2022-12-09T08:00:40.899Z,16.00
2022-12-09T08:01:40.834Z,16.10
2022-12-09T08:02:40.900Z,16.60
2022-12-09T08:03:41.000Z,17.70
2022-12-09T08:04:40.895Z,20.60
2022-12-09T08:05:40.747Z,19.70
2022-12-09T08:06:41.267Z,18.80
2022-12-09T08:07:44.246Z,19.10
2022-12-09T08:08:41.020Z,20.50
2022-12-09T08:09:40.714Z,21.00
2022-12-09T08:10:40.849Z,19.30
2022-12-09T08:11:40.935Z,18.40
2022-12-09T08:12:40.732Z,17.30
2022-12-09T08:13:40.458Z,16.80
2022-12-09T08:14:40.462Z,17.90
2022-12-09T08:15:40.699Z,17.10
2022-12-09T08:16:40.659Z,16.90
2022-12-09T08:17:40.560Z,16.90
2022-12-09T08:18:40.466Z,17.40
2022-12-09T08:19:40.580Z,16.20
2022-12-09T08:20:40.314Z,17.10
2022-12-09T08:21:40.766Z,17.30
2022-12-09T08:22:40.564Z,16.90
2022-12-09T08:23:40.407Z,17.50
2022-12-09T08:24:40.817Z,16.80
2022-12-09T08:25:40.298Z,16.70
2022-12-09T08:26:40.350Z,15.70
2022-12-09T08:27:40.284Z,14.20
2022-12-09T08:28:40.330Z,14.00
2022-12-09T08:29:40.181Z,15.30
2022-12-09T08:30:40.478Z,14.60
2022-12-09T08:31:41.836Z,14.30
2022-12-09T08:32:40.088Z,13.60
2022-12-09T08:33:40.008Z,14.30
2022-12-09T08:34:40.360Z,15.10
2022-12-09T08:35:39.924Z,14.30
2022-12-09T08:36:39.953Z,14.40
2022-12-09T08:37:40.072Z,13.70
2022-12-09T08:38:40.097Z,13.90
2022-12-09T08:39:39.887Z,14.70
2022-12-09T08:40:40.164Z,14.10
2022-12-09T08:41:40.208Z,14.10
2022-12-09T08:42:39.924Z,13.40
2022-12-09T08:43:40.074Z,15.50
2022-12-09T08:44:40.086Z,15.60
2022-12-09T08:45:39.949Z,15.20
2022-12-09T08:46:39.927Z,15.40
2022-12-09T08:47:39.730Z,16.20
2022-12-09T08:48:39.802Z,15.90
2022-12-09T08:49:40.161Z,16.90
2022-12-09T08:50:40.085Z,16.40
2022-12-09T08:51:39.700Z,15.90
2022-12-09T08:52:40.845Z,15.10
2022-12-09T08:53:39.929Z,15.20
2022-12-09T08:54:39.507Z,16.30
2022-12-09T08:55:39.578Z,15.70
2022-12-09T08:56:39.513Z,15.70
2022-12-09T08:57:39.749Z,14.70
2022-12-09T08:58:39.576Z,15.20
2022-12-09T08:59:45.002Z,14.60
2022-12-09T09:00:40.527Z,15.90
2022-12-09T09:01:39.303Z,16.60
2022-12-09T09:02:39.407Z,15.50
2022-12-09T09:03:39.346Z,15.90
2022-12-09T09:04:39.866Z,17.30
2022-12-09T09:05:39.395Z,16.60
2022-12-09T09:06:39.529Z,16.60
2022-12-09T09:07:39.127Z,17.00
2022-12-09T09:08:39.283Z,18.30
2022-12-09T09:09:39.526Z,16.20
2022-12-09T09:10:39.110Z,16.10
2022-12-09T09:11:39.491Z,17.40
2022-12-09T09:12:43.191Z,15.20
2022-12-09T09:13:40.025Z,16.70
2022-12-09T09:14:38.995Z,16.30
2022-12-09T09:15:39.017Z,15.70
2022-12-09T09:16:38.883Z,16.10
2022-12-09T09:17:39.354Z,16.40
2022-12-09T09:18:39.261Z,17.20
2022-12-09T09:19:39.112Z,15.60
2022-12-09T09:20:38.978Z,16.20
2022-12-09T09:21:38.716Z,16.20
2022-12-09T09:22:39.005Z,17.80
2022-12-09T09:23:38.778Z,16.00
2022-12-09T09:24:39.024Z,16.70
2022-12-09T09:25:38.864Z,18.00
2022-12-09T09:26:38.726Z,18.50
2022-12-09T09:27:38.550Z,18.10
2022-12-09T09:28:38.592Z,17.00
2022-12-09T09:29:38.397Z,16.60
2022-12-09T09:30:38.519Z,15.90
2022-12-09T09:31:38.428Z,16.50
2022-12-09T09:32:38.737Z,16.80
2022-12-09T09:33:38.285Z,16.70
2022-12-09T09:34:38.533Z,15.80
2022-12-09T09:35:38.496Z,15.90
2022-12-09T09:36:38.434Z,15.40
2022-12-09T09:37:38.272Z,15.30
2022-12-09T09:38:38.489Z,15.00
2022-12-09T09:39:38.118Z,17.20
2022-12-09T09:40:38.095Z,15.60
2022-12-09T09:41:38.009Z,15.40
2022-12-09T09:42:37.987Z,16.20
2022-12-09T09:43:38.318Z,16.00
2022-12-09T09:44:38.065Z,15.80
2022-12-09T09:45:37.962Z,15.50
2022-12-09T09:46:38.095Z,15.90
2022-12-09T09:47:38.786Z,15.90
2022-12-09T09:48:38.319Z,15.40
2022-12-09T09:49:37.765Z,17.20
2022-12-09T09:50:37.870Z,16.10
2022-12-09T09:51:37.889Z,15.10
2022-12-09T09:52:37.652Z,15.10
2022-12-09T09:53:37.808Z,14.00
2022-12-09T09:54:37.925Z,13.70
2022-12-09T09:55:37.535Z,14.60
2022-12-09T09:56:37.585Z,13.90
2022-12-09T09:57:37.859Z,13.40
2022-12-09T09:58:37.571Z,13.70
2022-12-09T09:59:37.580Z,15.80
2022-12-09T10:00:37.969Z,13.60
2022-12-09T10:01:37.761Z,13.90
2022-12-09T10:02:37.647Z,14.50
2022-12-09T10:03:37.486Z,14.20
2022-12-09T10:04:37.543Z,15.00
2022-12-09T10:05:37.462Z,14.60
2022-12-09T10:06:37.520Z,15.10
2022-12-09T10:07:37.540Z,13.70
2022-12-09T10:08:37.610Z,15.30
2022-12-09T10:09:37.267Z,14.80
2022-12-09T10:10:37.519Z,13.10
2022-12-09T10:11:37.509Z,13.00
2022-12-09T10:12:37.119Z,13.00
2022-12-09T10:13:37.628Z,14.00
2022-12-09T10:14:37.357Z,14.10
2022-12-09T10:15:39.971Z,13.60
2022-12-09T10:16:36.998Z,14.20
2022-12-09T10:17:37.456Z,12.20
2022-12-09T10:18:36.981Z,12.30
2022-12-09T10:19:36.997Z,11.60
2022-12-09T10:20:36.848Z,10.90
2022-12-09T10:21:36.811Z,11.80
2022-12-09T10:22:36.838Z,11.40
2022-12-09T10:23:37.060Z,10.80
2022-12-09T10:24:40.547Z,10.90
2022-12-09T10:25:36.647Z,11.60
2022-12-09T10:26:36.830Z,11.00
2022-12-09T10:27:36.628Z,11.50
2022-12-09T10:28:36.506Z,12.20
2022-12-09T10:29:36.362Z,11.50
2022-12-09T10:30:41.774Z,11.70
2022-12-09T10:31:37.511Z,11.10
2022-12-09T10:32:36.641Z,12.50
2022-12-09T10:33:36.411Z,12.00
2022-12-09T10:34:36.534Z,10.70
2022-12-09T10:35:36.541Z,10.10
2022-12-09T10:36:36.788Z,11.30
2022-12-09T10:37:36.169Z,10.40
2022-12-09T10:38:36.406Z,10.20
2022-12-09T10:39:36.292Z,10.70
2022-12-09T10:40:36.274Z,11.10
2022-12-09T10:41:36.233Z,11.10
2022-12-09T10:42:36.115Z,11.50
2022-12-09T10:43:36.353Z,11.60
2022-12-09T10:44:36.160Z,9.90
2022-12-09T10:46:08.461Z,10.60
2022-12-09T10:46:37.183Z,10.20
2022-12-09T10:47:35.807Z,12.00
2022-12-09T10:48:36.516Z,10.40
2022-12-09T10:49:35.873Z,9.80
2022-12-09T10:50:35.734Z,9.90
2022-12-09T10:51:35.633Z,10.20
2022-12-09T10:52:35.642Z,10.30
2022-12-09T10:53:35.393Z,10.10
2022-12-09T10:54:35.798Z,11.10
2022-12-09T10:55:35.706Z,10.90
2022-12-09T10:56:35.715Z,10.20
2022-12-09T10:57:35.442Z,11.80
2022-12-09T10:58:35.306Z,10.50
2022-12-09T10:59:35.363Z,11.60
2022-12-09T11:00:35.429Z,11.10
2022-12-09T11:01:35.461Z,9.80
2022-12-09T11:02:35.252Z,10.20
2022-12-09T11:03:35.361Z,10.60
2022-12-09T11:04:35.264Z,10.00
2022-12-09T11:05:35.053Z,10.90
2022-12-09T11:06:35.239Z,11.70
2022-12-09T11:07:34.873Z,9.80
2022-12-09T11:08:35.329Z,10.00
2022-12-09T11:09:34.914Z,10.00
2022-12-09T11:10:35.293Z,10.10
2022-12-09T11:11:34.758Z,10.80
2022-12-09T11:12:40.578Z,10.10
2022-12-09T11:13:35.788Z,10.40
2022-12-09T11:14:34.905Z,10.00
2022-12-09T11:15:34.666Z,10.80
2022-12-09T11:16:35.106Z,10.40
2022-12-09T11:17:35.911Z,10.00
2022-12-09T11:18:34.826Z,11.20
2022-12-09T11:19:34.385Z,10.90
2022-12-09T11:20:34.681Z,10.70
2022-12-09T11:21:34.377Z,10.60
2022-12-09T11:22:34.531Z,11.10
2022-12-09T11:23:34.597Z,9.70
2022-12-09T11:24:34.642Z,10.30
2022-12-09T11:25:34.532Z,10.00
2022-12-09T11:26:34.442Z,11.20
2022-12-09T11:27:34.074Z,11.20
2022-12-09T11:28:34.423Z,12.20
2022-12-09T11:29:34.396Z,11.50
2022-12-09T11:30:34.148Z,10.90
2022-12-09T11:31:34.245Z,11.10
2022-12-09T11:32:33.967Z,10.80
2022-12-09T11:33:34.162Z,10.30
2022-12-09T11:34:34.332Z,10.90
2022-12-09T11:35:34.084Z,10.50
2022-12-09T11:36:35.404Z,10.80
2022-12-09T11:37:33.583Z,10.70
2022-12-09T11:38:33.573Z,10.90
2022-12-09T11:39:33.529Z,10.80
2022-12-09T11:40:33.494Z,10.40
2022-12-09T11:41:33.465Z,10.50
2022-12-09T11:42:33.442Z,10.90
2022-12-09T11:43:33.383Z,10.90
2022-12-09T11:44:33.364Z,12.00
2022-12-09T11:45:33.313Z,11.50
2022-12-09T11:46:33.309Z,12.90
2022-12-09T11:47:50.472Z,13.00
2022-12-09T11:48:38.641Z,12.60
2022-12-09T11:49:34.164Z,14.70
2022-12-09T11:50:33.511Z,13.00
2022-12-09T11:51:33.094Z,12.40
2022-12-09T11:52:33.063Z,11.70
2022-12-09T11:53:33.049Z,11.00
2022-12-09T11:54:32.982Z,12.50
2022-12-09T11:55:32.944Z,12.30
2022-12-09T11:56:32.939Z,11.40
2022-12-09T11:57:32.884Z,12.00
2022-12-09T11:58:32.826Z,12.20
2022-12-09T11:59:37.840Z,12.90
2022-12-09T12:00:33.767Z,11.90
2022-12-09T12:01:32.739Z,11.40
2022-12-09T12:02:32.701Z,11.30
2022-12-09T12:03:32.658Z,12.60
2022-12-09T12:04:32.586Z,12.90
2022-12-09T12:05:32.544Z,11.20
2022-12-09T12:06:32.505Z,11.50
2022-12-09T12:07:32.464Z,12.00
2022-12-09T12:08:32.563Z,11.50
2022-12-09T12:09:32.385Z,12.10
2022-12-09T12:10:32.348Z,12.00
2022-12-09T12:11:32.293Z,12.60
2022-12-09T12:12:32.266Z,11.90
2022-12-09T12:13:32.237Z,12.20
2022-12-09T12:14:32.186Z,12.30
2022-12-09T12:15:32.137Z,12.20
2022-12-09T12:16:37.670Z,12.40
2022-12-09T12:17:33.088Z,12.40
2022-12-09T12:18:32.039Z,12.00
2022-12-09T12:19:31.997Z,12.50
2022-12-09T12:20:31.957Z,13.00
2022-12-09T12:21:31.915Z,12.60
2022-12-09T12:22:31.883Z,13.10
2022-12-09T12:23:31.827Z,13.50
2022-12-09T12:24:31.798Z,12.80
2022-12-09T12:25:31.747Z,14.00
2022-12-09T12:26:31.718Z,13.50
2022-12-09T12:27:31.671Z,12.40
2022-12-09T12:28:31.628Z,13.30
2022-12-09T12:29:31.622Z,12.70
2022-12-09T12:30:31.551Z,12.50
2022-12-09T12:31:31.583Z,12.70
2022-12-09T12:32:31.468Z,12.40
2022-12-09T12:34:23.065Z,12.80
2022-12-09T12:34:38.951Z,12.50
2022-12-09T12:35:32.333Z,12.70
2022-12-09T12:36:31.359Z,12.60
2022-12-09T12:37:31.249Z,11.80
2022-12-09T12:38:31.200Z,12.20
2022-12-09T12:39:31.210Z,12.20
2022-12-09T12:40:31.132Z,12.80
2022-12-09T12:41:31.090Z,11.90
2022-12-09T12:42:31.071Z,12.60
2022-12-09T12:43:31.028Z,11.70
2022-12-09T12:44:30.980Z,12.80
2022-12-09T12:45:30.999Z,12.90
2022-12-09T12:46:30.969Z,12.90
2022-12-09T12:47:30.853Z,13.00
2022-12-09T12:48:30.844Z,13.00
2022-12-09T12:49:30.761Z,13.00
2022-12-09T12:50:30.730Z,12.30
2022-12-09T12:51:30.689Z,11.50
2022-12-09T12:52:55.671Z,12.80